• Join FlightAware (Why Join?)
  • Login
  • US Flag 
07:20AM EST


 

Airport Tracker/Info


-or-


 

Live Flight TrackerFlight Track Log ✈ NKS817 ✈ 02-Jul-2013 ✈ KDFW - KLAS

Flight Track Log - Related Links

Times and Time Zones

All times are in EDT time to prevent confusion due to time zone crossing. See the NKS817 flight status page for this flight to view local times or setup timezone preferences in your user account.

Time Position Orientation Groundspeed Altitude Reporting Facility
EDT Latitude Longitude Course Direction KTS MPH feet Rate Location/Type
02:34AM 32.9230 -97.0300 357° North 180 207 1,300  Level FlightAware
02:35AM 32.9460 -97.0350 350° North 185 213 2,300 1,846 Climbing FlightAware
02:35AM 32.9670 -97.0470 334° Northwest 213 245 2,900 1,607 Climbing FlightAware
02:35AM 32.9930 -97.0730 320° Northwest 257 296 3,800 2,500 Climbing FlightAware
02:36AM 33.0110 -97.1090 301° West 266 306 5,400 3,368 Climbing FlightAware
02:36AM 33.0230 -97.1490 290° West 276 318 7,000 3,207 Climbing FlightAware
02:37AM 33.0330 -97.1910 286° West 285 328 8,500 3,107 Climbing FlightAware
02:37AM 33.0430 -97.2340 286° West 292 336 9,900 2,381 Climbing FlightAware
02:38AM 33.0570 -97.2930 286° West 327 376 11,000 2,026 Climbing FlightAware
02:39AM 33.0750 -97.3670 286° West 353 406 12,500 2,283 Climbing FlightAware
02:39AM 33.0960 -97.4550 286° West 362 417 14,500 2,414 Climbing FlightAware
02:40AM 33.1040 -97.5320 277° West 375 432 16,000 2,444 Climbing FlightAware
02:41AM 33.1110 -97.6330 275° West 388 447 17,800 2,400 Climbing FlightAware
02:41AM 33.1180 -97.7190 276° West 390 449 19,400 2,286 Climbing FlightAware
02:42AM 33.1250 -97.8130 275° West 394 453 21,000 2,093 Climbing FlightAware
02:43AM 33.1330 -97.9040 276° West 399 459 22,400 1,829 Climbing FlightAware
02:44AM 33.1530 -97.9880 286° West 403 464 23,500 1,610 Climbing FlightAware
02:44AM 33.1760 -98.0790 287° West 412 474 24,600 1,535 Climbing FlightAware
02:45AM 33.2000 -98.1770 286° West 419 482 25,700 1,426 Climbing FlightAware
02:46AM 33.2320 -98.3060 287° West 430 495 27,000 1,408 Climbing FlightAware
02:47AM 33.2540 -98.3980 286° West 435 501 28,000 767 Climbing FlightAware
02:47AM 33.2760 -98.4890 286° West 436 502 28,100 1,143 Climbing FlightAware
02:48AM 33.3020 -98.5950 286° West 448 516 29,600 1,250 Climbing FlightAware
02:49AM 33.3330 -98.7210 286° West 451 519 30,100 1,375 Climbing FlightAware
02:50AM 33.3570 -98.8200 286° West 445 512 31,800 2,000 Climbing FlightAware
02:50AM 33.3830 -98.9290 286° West 443 510 32,900 767 Climbing FlightAware
02:51AM 33.4020 -99.0080 286° West 443 510 32,900  Level FlightAware
02:52AM 33.4190 -99.0800 286° West 443 510 32,900  Level FlightAware
02:52AM 33.4360 -99.1520 286° West 443 510 32,900  Level FlightAware
02:53AM 33.4600 -99.2500 286° West 443 510 32,900  Level FlightAware
02:54AM 33.4780 -99.3250 286° West 443 510 32,900  Level FlightAware
02:54AM 33.4940 -99.3930 286° West 443 510 32,900 1,979 Level FlightAware
02:55AM 33.5390 -99.5900 285° West 425 489 36,000 1,938 Climbing FlightAware
02:56AM 33.5550 -99.6600 285° West 425 489 36,000  Level FlightAware
02:57AM 33.5750 -99.7490 285° West 425 489 36,000  Level FlightAware
02:57AM 33.5910 -99.8220 285° West 425 489 36,000  Level FlightAware
02:58AM 33.6120 -99.9150 285° West 425 489 36,000  Level FlightAware
02:59AM 33.6270 -99.9810 285° West 425 489 36,000  Level FlightAware
02:59AM 33.6430 -100.0550 285° West 425 489 36,000  Level FlightAware
03:00AM 33.6640 -100.1500 285° West 425 489 36,000  Level FlightAware
03:01AM 33.6790 -100.2160 285° West 425 489 36,000  Level FlightAware
03:01AM 33.6960 -100.2900 285° West 425 489 36,000  Level FlightAware
03:02AM 33.7160 -100.3810 285° West 425 489 36,000  Level FlightAware
03:03AM 33.7310 -100.4510 284° West 425 489 36,000  Level FlightAware
03:03AM 33.7530 -100.5460 286° West 425 489 36,000  Level FlightAware
03:04AM 33.7690 -100.6200 285° West 425 489 36,000  Level FlightAware
03:05AM 33.7850 -100.6900 285° West 425 489 36,000  Level FlightAware
03:06AM 33.8497 -100.9553 285° West 402 463 36,000  Level Albuquerque Center
03:07AM 33.8808 -101.0967 285° West 401 461 36,000  Level Albuquerque Center
03:08AM 33.9100 -101.2261 285° West 400 460 36,000  Level Albuquerque Center
03:09AM 33.9383 -101.3561 285° West 400 460 36,000  Level Albuquerque Center
03:10AM 33.9669 -101.4864 285° West 402 463 36,000 50 Level Albuquerque Center
03:11AM 33.9939 -101.6156 284° West 401 461 36,100  Climbing Albuquerque Center
03:12AM 34.0217 -101.7439 285° West 397 457 36,000 -50 Descending Albuquerque Center
03:13AM 34.0486 -101.8733 284° West 397 457 36,000  Level Albuquerque Center
03:14AM 34.0758 -102.0022 284° West 397 457 36,000  Level Albuquerque Center
03:15AM 34.1083 -102.1567 284° West 400 460 36,000  Level Fort Worth Center
03:16AM 34.1328 -102.2717 284° West 402 463 36,000 52 Level Albuquerque Center
03:17AM 34.1603 -102.4022 284° West 403 464 36,100 50 Climbing Albuquerque Center
03:18AM 34.1878 -102.5353 284° West 407 468 36,100 -50 Level Albuquerque Center
03:19AM 34.2147 -102.6664 284° West 406 467 36,000 -50 Descending Albuquerque Center
03:20AM 34.2406 -102.7908 284° West 402 463 36,000  Level Albuquerque Center
03:21AM 34.2678 -102.9239 284° West 405 466 36,000  Level Albuquerque Center
03:22AM 34.2925 -103.0561 283° West 403 464 36,000 50 Level Albuquerque Center
03:23AM 34.3197 -103.1911 284° West 408 470 36,100  Climbing Albuquerque Center
03:24AM 34.3475 -103.3247 284° West 407 468 36,000 -50 Descending Albuquerque Center
03:25AM 34.3758 -103.4564 285° West 403 464 36,000  Level Albuquerque Center
03:26AM 34.4014 -103.5897 283° West 402 463 36,000  Level Albuquerque Center
03:27AM 34.4267 -103.7239 283° West 404 465 36,000  Level Albuquerque Center
03:28AM 34.4492 -103.8586 281° West 403 464 36,000  Level Albuquerque Center
03:29AM 34.4428 -103.9983 267° West 414 476 36,000  Level Albuquerque Center
03:30AM 34.4461 -104.1397 272° West 414 476 36,000  Level Albuquerque Center
03:31AM 34.4397 -104.2819 267° West 416 479 36,000  Level Albuquerque Center
03:32AM 34.4339 -104.4258 267° West 420 483 36,000  Level Albuquerque Center
03:33AM 34.4292 -104.5714 268° West 424 488 36,000  Level Albuquerque Center
03:34AM 34.4164 -104.7139 264° West 421 484 36,000  Level Albuquerque Center
03:35AM 34.3964 -104.8572 260° West 423 487 36,000  Level Albuquerque Center
03:36AM 34.3692 -105.0003 257° West 429 494 36,000  Level Albuquerque Center
03:37AM 34.3425 -105.1156 254° West 426 490 36,000  Level Albuquerque Center
03:38AM 34.3108 -105.2572 255° West 430 495 36,000  Level Albuquerque Center
03:39AM 34.2789 -105.3983 255° West 431 496 36,000 15 Level Albuquerque Center
03:45AM 34.1590 -106.2160 255° West 412 474 36,100  Climbing FlightAware
03:45AM 34.1690 -106.3100 277° West 411 473 36,000 -70 Descending FlightAware
03:46AM 34.1790 -106.4090 277° West 408 470 36,000  Level FlightAware
03:47AM 34.1890 -106.4970 278° West 407 468 36,000  Level FlightAware
03:47AM 34.1980 -106.5910 277° West 408 470 36,000  Level FlightAware
03:48AM 34.2090 -106.6950 277° West 410 472 36,000  Level FlightAware
03:49AM 34.2180 -106.7830 277° West 411 473 36,000  Level FlightAware
03:50AM 34.2240 -106.9050 273° West 413 475 36,000  Level FlightAware
03:51AM 34.2140 -107.0160 264° West 418 481 36,000  Level FlightAware
03:51AM 34.2050 -107.1100 263° West 421 484 36,000  Level FlightAware
03:52AM 34.1970 -107.1970 264° West 421 484 36,000  Level FlightAware
03:53AM 34.1870 -107.2880 262° West 421 484 36,000  Level FlightAware
03:53AM 34.1800 -107.3600 263° West 421 484 36,000  Level FlightAware
03:54AM 34.1700 -107.4550 263° West 421 484 36,000  Level FlightAware
03:55AM 34.1630 -107.5290 263° West 421 484 36,000  Level FlightAware
03:55AM 34.1550 -107.6060 263° West 421 484 36,000  Level FlightAware
03:56AM 34.1480 -107.6760 263° West 421 484 36,000  Level FlightAware
03:57AM 34.1380 -107.7730 263° West 421 484 36,000  Level FlightAware
03:57AM 34.1310 -107.8400 263° West 421 484 36,000  Level FlightAware
03:58AM 34.1240 -107.9140 264° West 421 484 36,000  Level FlightAware
03:59AM 34.1140 -108.0050 262° West 421 484 36,000  Level FlightAware
03:59AM 34.1070 -108.0800 264° West 421 484 36,000  Level FlightAware
04:00AM 34.0970 -108.1780 263° West 421 484 36,000  Level FlightAware
04:01AM 34.0900 -108.2450 263° West 421 484 36,000  Level FlightAware
04:06AM 34.4310 -109.1430 295° West 429 494 36,000  Level FlightAware
04:06AM 34.4560 -109.2260 290° West 430 495 36,000  Level FlightAware
04:07AM 34.4810 -109.3120 289° West 431 496 36,000  Level FlightAware
04:08AM 34.5120 -109.4120 291° West 432 497 36,000  Level FlightAware
04:08AM 34.5420 -109.5130 290° West 432 497 36,000  Level FlightAware
04:09AM 34.5690 -109.6030 290° West 433 498 36,000  Level FlightAware
04:10AM 34.6000 -109.7050 290° West 434 499 36,000  Level FlightAware
04:11AM 34.6270 -109.7960 290° West 434 499 36,000  Level FlightAware
04:11AM 34.6480 -109.8650 290° West 434 499 36,000  Level FlightAware
04:12AM 34.6800 -109.9750 290° West 435 501 36,000  Level FlightAware
04:12AM 34.7070 -110.0660 290° West 437 503 36,000  Level FlightAware
04:13AM 34.7390 -110.1740 290° West 438 504 36,000  Level FlightAware
04:14AM 34.7660 -110.2670 289° West 439 505 36,000  Level FlightAware
04:14AM 34.7890 -110.3440 290° West 442 509 36,000  Level FlightAware
04:15AM 34.8230 -110.4620 289° West 444 511 36,000  Level FlightAware
04:16AM 34.8500 -110.5520 290° West 445 512 36,000  Level FlightAware
04:17AM 34.8770 -110.6460 289° West 447 514 36,000  Level FlightAware
04:17AM 34.9040 -110.7410 289° West 448 516 36,000  Level FlightAware
04:18AM 34.9320 -110.8370 290° West 448 516 36,000  Level FlightAware
04:19AM 34.9590 -110.9330 289° West 446 513 36,000  Level FlightAware
04:19AM 34.9860 -111.0280 289° West 447 514 36,000  Level FlightAware
04:20AM 35.0130 -111.1230 289° West 446 513 36,000  Level FlightAware
04:21AM 35.0380 -111.2080 290° West 448 516 36,000  Level FlightAware
04:21AM 35.0670 -111.3120 289° West 447 514 36,000  Level FlightAware
04:22AM 35.0940 -111.4070 289° West 445 512 36,000  Level FlightAware
04:23AM 35.1210 -111.5030 289° West 448 516 36,000  Level FlightAware
04:23AM 35.1520 -111.6130 289° West 450 518 36,000  Level FlightAware
04:24AM 35.1810 -111.7170 289° West 450 518 36,000  Level FlightAware
04:25AM 35.2070 -111.8120 289° West 450 518 36,000  Level FlightAware
04:25AM 35.2320 -111.9020 289° West 452 520 36,000  Level FlightAware
04:26AM 35.2580 -111.9970 289° West 453 521 36,000 71 Level FlightAware
04:27AM 35.2870 -112.1030 289° West 450 518 36,100  Climbing FlightAware
04:27AM 35.3110 -112.1900 289° West 450 518 36,000 -474 Descending FlightAware
04:28AM 35.3380 -112.2870 289° West 450 518 35,500 -900 Descending FlightAware
04:29AM 35.3650 -112.3840 289° West 458 527 34,800 -1,000 Descending FlightAware
04:29AM 35.3940 -112.4940 288° West 461 531 34,100 -1,000 Descending FlightAware
04:30AM 35.4210 -112.5930 289° West 465 535 33,400 -1,000 Descending FlightAware
04:31AM 35.4500 -112.7030 288° West 467 537 32,700 -1,000 Descending FlightAware
04:32AM 35.4770 -112.8040 288° West 467 537 32,000 -1,000 Descending FlightAware
04:32AM 35.5070 -112.9150 288° West 461 531 31,300 -1,000 Descending FlightAware
04:33AM 35.5330 -113.0140 288° West 452 520 30,600 -1,000 Descending FlightAware
04:34AM 35.5610 -113.1190 288° West 445 512 29,900 -1,357 Descending FlightAware
04:34AM 35.5860 -113.2160 288° West 439 505 28,700 -1,929 Descending FlightAware
04:35AM 35.6140 -113.3190 289° West 430 495 27,200 -1,950 Descending FlightAware
04:36AM 35.6350 -113.4010 288° West 422 486 26,100 -1,846 Descending FlightAware
04:36AM 35.6590 -113.4950 287° West 415 478 24,800 -1,976 Descending FlightAware
04:37AM 35.6830 -113.5860 288° West 407 468 23,400 -1,929 Descending FlightAware
04:38AM 35.7080 -113.6810 288° West 400 460 22,100 -1,857 Descending FlightAware
04:38AM 35.7300 -113.7680 287° West 394 453 20,800 -1,857 Descending FlightAware
04:39AM 35.7540 -113.8600 288° West 385 443 19,500 -1,714 Descending FlightAware
04:40AM 35.7750 -113.9430 287° West 372 428 18,400 -1,714 Descending FlightAware
04:41AM 35.7980 -114.0310 288° West 362 417 17,100 -1,725 Descending FlightAware
04:41AM 35.8150 -114.1000 287° West 354 407 16,100 -1,579 Descending FlightAware
04:42AM 35.8340 -114.1720 288° West 345 397 15,100 -1,630 Descending FlightAware
04:42AM 35.8540 -114.2520 287° West 336 387 13,900 -1,636 Descending FlightAware
04:43AM 35.8700 -114.3170 287° West 329 379 13,000 -1,403 Descending FlightAware
04:44AM 35.8890 -114.3900 288° West 330 380 12,100 -1,200 Descending FlightAware
04:45AM 35.9090 -114.4700 287° West 329 379 11,300 -975 Descending FlightAware
04:45AM 35.9240 -114.5320 287° West 302 348 10,800 -1,040 Descending FlightAware
04:46AM 35.9400 -114.5950 287° West 290 334 10,000 -1,304 Descending FlightAware
04:46AM 35.9520 -114.6410 288° West 285 328 9,300 -1,500 Descending FlightAware
04:47AM 35.9630 -114.6870 286° West 284 327 8,500 -1,333 Descending FlightAware
04:47AM 35.9720 -114.7240 287° West 281 323 8,100 -462 Descending FlightAware
04:48AM 35.9830 -114.7690 287° West 283 326 8,100 -214 Level FlightAware
04:48AM 35.9930 -114.8090 287° West 280 322 7,900 -724 Descending FlightAware
04:49AM 36.0120 -114.8520 299° West 266 306 7,400 -750 Descending FlightAware
04:49AM 36.0290 -114.8860 302° West 253 291 7,200 -517 Descending FlightAware
04:50AM 36.0470 -114.9230 301° West 235 270 6,900 -566 Descending FlightAware
04:50AM 36.0600 -114.9420 310° West 217 250 6,700 -545 Descending FlightAware
04:50AM 36.0760 -114.9630 313° West 194 223 6,500 -1,200 Descending FlightAware
04:51AM 36.0960 -114.9870 316° Northwest 187 215 5,600 -1,636 Descending FlightAware
04:51AM 36.1020 -114.9980 304° West 190 219 5,300 -1,200 Descending FlightAware
04:51AM 36.1140 -115.0250 299° West 194 223 4,800 -982 Descending FlightAware
04:52AM 36.1250 -115.0520 297° West 200 230 4,400 -955 Descending FlightAware
04:52AM 36.1320 -115.0690 297° West 185 213 4,100 -933 Descending FlightAware
04:53AM 36.1380 -115.0950 286° West 154 177 3,700 -750 Descending FlightAware
04:53AM 36.1350 -115.1180 261° West 142 163 3,400 -750 Descending FlightAware
04:54AM 36.1250 -115.1360 235° Southwest 136 157 3,000 -906 Descending FlightAware
04:54AM 36.1120 -115.1460 212° Southwest 129 148 2,600 -947 Descending FlightAware
04:54AM 36.1050 -115.1500 205° Southwest 127 146 2,400 -353 Descending FlightAware
04:55AM 36.0880 -115.1600 205° Southwest 128 147 2,300 -158 Descending FlightAware
05:03AM 36.0801 -115.1523 284° West  Level Estimated